Meteo Giornale » Osservazioni meteo Italia » Capo Bellavista

ore: 00:55 - Osservazioni Meteo Capo Bellavista
Lat. 39° 56' N Lon. 9° 43' E Alt. 138 metri s.l.m.

sereno Europe/Rome

24 °C

Sereno

Temp. 24 Ore

23 °C

30 °C

Ovest

9.3 Km/h

Dew point 19 °C

Umidità 73 %

Visibilità  10 Km

Il sole sorge alle ore 07:06

Il sole tramonta alle ore 19:21

Data e Ora Cielo e Fenomeni T °C DP °C Um. % Pres. hPa Vis. km Vento km/h
Oggi h: 00:55 sereno Sereno 24 19 73 1015 10 O 9.3
Ieri h: 23:55 sereno Sereno 25 21 78 1015 10 N 5.5
Ieri h: 22:55 sereno Sereno 25 22 83 1014 10 E/NE 20.3
Ieri h: 21:55 sereno Sereno 25 16 57 1014 10 N/NO 11.1
Ieri h: 19:55 sereno Sereno 27 17 54 1013 10 O/NO 24
Ieri h: 18:55 sereno Sereno 28 20 61 1013 10 O/NO 14.8
Ieri h: 17:55 sereno Sereno 29 23 70 1013 10 S/SO 14.8
Ieri h: 16:55 sereno Sereno 30 22 62 1012 10 N 5.5
Ieri h: 15:55 sereno Sereno 30 21 58 1013 10 N 5.5
Ieri h: 14:55 nuvoloso Nuvoloso 30 23 66 1013 10 N 5.5
Ieri h: 13:55 nuvoloso Nuvoloso 29 22 66 1016 10 NE 16.7
Ieri h: 12:55 molto_nuvoloso Molto Nuvoloso 29 21 62 1015 10 NE 11.1
Ieri h: 11:55 molto_nuvoloso Molto Nuvoloso 27 21 69 1015 10 N/NE 13
Ieri h: 10:55 molto_nuvoloso Molto Nuvoloso 26 20 69 1014 10 NE 27.8
Ieri h: 09:55 nuvoloso_temporali Temporale con Pioggia Debole 24 21 83 1014 10 NE 37
Ieri h: 08:55 poco_nuvoloso Poco Nuvoloso 26 22 78 1014 10 NE 37
Ieri h: 07:55 poco_nuvoloso Poco Nuvoloso 24 22 88 1013 10 NE 29.6
Ieri h: 06:55 poco_nuvoloso Poco Nuvoloso 24 22 88 1013 10 NE 22.2
Ieri h: 05:55 poco_nuvoloso Poco Nuvoloso 23 18 73 1013 10 N 3.7
Ieri h: 04:55 poco_nuvoloso Poco Nuvoloso 24 18 69 1014 10 O/SO 11.1
Ieri h: 03:55 sereno Sereno 24 21 83 1014 10 S 11.1
Ieri h: 02:55 sereno Sereno 24 21 83 1015 10 O/SO 11.1